sensor_id;sensor_type;location;lat;lon;timestamp;P1;durP1;ratioP1;P2;durP2;ratioP2
24389;SDS011;12510;56.468;-3.004;2023-01-15T00:01:26;1.80;;;0.93;;
24389;SDS011;12510;56.468;-3.004;2023-01-15T00:03:57;2.38;;;1.08;;
24389;SDS011;12510;56.468;-3.004;2023-01-15T00:06:25;2.75;;;0.70;;
24389;SDS011;12510;56.468;-3.004;2023-01-15T00:08:52;1.02;;;0.77;;
24389;SDS011;12510;56.468;-3.004;2023-01-15T00:11:19;1.25;;;1.10;;
24389;SDS011;12510;56.468;-3.004;2023-01-15T00:13:46;1.35;;;1.00;;
24389;SDS011;12510;56.468;-3.004;2023-01-15T00:16:16;1.00;;;0.70;;
24389;SDS011;12510;56.468;-3.004;2023-01-15T00:18:54;0.60;;;0.60;;
24389;SDS011;12510;56.468;-3.004;2023-01-15T00:21:23;1.33;;;0.68;;
24389;SDS011;12510;56.468;-3.004;2023-01-15T00:23:51;2.67;;;0.98;;
24389;SDS011;12510;56.468;-3.004;2023-01-15T00:26:37;1.63;;;1.52;;
24389;SDS011;12510;56.468;-3.004;2023-01-15T00:29:22;0.60;;;0.60;;
24389;SDS011;12510;56.468;-3.004;2023-01-15T00:31:51;0.50;;;0.50;;
24389;SDS011;12510;56.468;-3.004;2023-01-15T00:34:18;0.63;;;0.63;;
24389;SDS011;12510;56.468;-3.004;2023-01-15T00:36:44;0.30;;;0.30;;
24389;SDS011;12510;56.468;-3.004;2023-01-15T00:39:11;0.30;;;0.30;;
24389;SDS011;12510;56.468;-3.004;2023-01-15T00:41:39;0.40;;;0.40;;
24389;SDS011;12510;56.468;-3.004;2023-01-15T00:44:05;1.10;;;0.70;;
24389;SDS011;12510;56.468;-3.004;2023-01-15T00:46:31;25.27;;;4.45;;
24389;SDS011;12510;56.468;-3.004;2023-01-15T00:48:58;0.30;;;0.30;;
24389;SDS011;12510;56.468;-3.004;2023-01-15T00:51:24;0.40;;;0.40;;
24389;SDS011;12510;56.468;-3.004;2023-01-15T00:53:51;0.40;;;0.40;;
24389;SDS011;12510;56.468;-3.004;2023-01-15T00:56:17;0.30;;;0.30;;
24389;SDS011;12510;56.468;-3.004;2023-01-15T00:58:43;0.40;;;0.40;;
24389;SDS011;12510;56.468;-3.004;2023-01-15T01:01:13;0.47;;;0.47;;
24389;SDS011;12510;56.468;-3.004;2023-01-15T01:03:40;0.30;;;0.30;;
24389;SDS011;12510;56.468;-3.004;2023-01-15T01:06:07;0.40;;;0.40;;
24389;SDS011;12510;56.468;-3.004;2023-01-15T01:08:35;0.40;;;0.40;;
24389;SDS011;12510;56.468;-3.004;2023-01-15T01:11:02;0.30;;;0.30;;
24389;SDS011;12510;56.468;-3.004;2023-01-15T01:13:35;0.30;;;0.30;;
24389;SDS011;12510;56.468;-3.004;2023-01-15T01:16:03;0.30;;;0.30;;
24389;SDS011;12510;56.468;-3.004;2023-01-15T01:18:30;0.40;;;0.40;;
24389;SDS011;12510;56.468;-3.004;2023-01-15T01:20:56;0.30;;;0.30;;
24389;SDS011;12510;56.468;-3.004;2023-01-15T01:23:23;0.40;;;0.40;;
24389;SDS011;12510;56.468;-3.004;2023-01-15T01:25:50;0.30;;;0.30;;
24389;SDS011;12510;56.468;-3.004;2023-01-15T01:28:16;0.50;;;0.50;;
24389;SDS011;12510;56.468;-3.004;2023-01-15T01:30:43;0.40;;;0.40;;
24389;SDS011;12510;56.468;-3.004;2023-01-15T01:33:09;0.40;;;0.40;;
24389;SDS011;12510;56.468;-3.004;2023-01-15T01:35:35;0.50;;;0.50;;
24389;SDS011;12510;56.468;-3.004;2023-01-15T01:38:03;0.40;;;0.40;;
24389;SDS011;12510;56.468;-3.004;2023-01-15T01:40:30;0.40;;;0.40;;
24389;SDS011;12510;56.468;-3.004;2023-01-15T01:42:56;0.52;;;0.52;;
24389;SDS011;12510;56.468;-3.004;2023-01-15T01:45:24;0.40;;;0.40;;
24389;SDS011;12510;56.468;-3.004;2023-01-15T01:47:55;0.30;;;0.30;;
24389;SDS011;12510;56.468;-3.004;2023-01-15T01:50:26;0.35;;;0.35;;
24389;SDS011;12510;56.468;-3.004;2023-01-15T01:53:02;0.40;;;0.40;;
24389;SDS011;12510;56.468;-3.004;2023-01-15T01:55:33;0.30;;;0.30;;
24389;SDS011;12510;56.468;-3.004;2023-01-15T01:58:01;0.30;;;0.30;;
24389;SDS011;12510;56.468;-3.004;2023-01-15T02:00:30;0.30;;;0.30;;
24389;SDS011;12510;56.468;-3.004;2023-01-15T02:02:58;0.30;;;0.30;;
24389;SDS011;12510;56.468;-3.004;2023-01-15T02:05:28;0.30;;;0.30;;
24389;SDS011;12510;56.468;-3.004;2023-01-15T02:07:57;0.32;;;0.32;;
24389;SDS011;12510;56.468;-3.004;2023-01-15T02:10:27;0.40;;;0.40;;
24389;SDS011;12510;56.468;-3.004;2023-01-15T02:15:51;0.30;;;0.30;;
24389;SDS011;12510;56.468;-3.004;2023-01-15T02:18:29;0.30;;;0.30;;
24389;SDS011;12510;56.468;-3.004;2023-01-15T02:20:57;0.40;;;0.40;;
24389;SDS011;12510;56.468;-3.004;2023-01-15T02:23:37;0.30;;;0.30;;
24389;SDS011;12510;56.468;-3.004;2023-01-15T02:29:14;1.10;;;0.60;;
24389;SDS011;12510;56.468;-3.004;2023-01-15T02:31:49;1.20;;;0.65;;
24389;SDS011;12510;56.468;-3.004;2023-01-15T02:36:55;0.52;;;0.52;;
24389;SDS011;12510;56.468;-3.004;2023-01-15T02:39:27;0.50;;;0.50;;
24389;SDS011;12510;56.468;-3.004;2023-01-15T02:41:55;0.40;;;0.40;;
24389;SDS011;12510;56.468;-3.004;2023-01-15T02:44:28;0.73;;;0.45;;
24389;SDS011;12510;56.468;-3.004;2023-01-15T02:46:58;1.17;;;0.60;;
24389;SDS011;12510;56.468;-3.004;2023-01-15T02:49:29;0.43;;;0.40;;
24389;SDS011;12510;56.468;-3.004;2023-01-15T02:52:06;1.17;;;0.40;;
24389;SDS011;12510;56.468;-3.004;2023-01-15T02:54:42;0.40;;;0.40;;
24389;SDS011;12510;56.468;-3.004;2023-01-15T02:57:13;0.40;;;0.40;;
24389;SDS011;12510;56.468;-3.004;2023-01-15T02:59:47;0.50;;;0.50;;
24389;SDS011;12510;56.468;-3.004;2023-01-15T03:02:25;0.50;;;0.50;;
24389;SDS011;12510;56.468;-3.004;2023-01-15T03:04:55;0.50;;;0.50;;
24389;SDS011;12510;56.468;-3.004;2023-01-15T03:07:45;1.30;;;0.60;;
24389;SDS011;12510;56.468;-3.004;2023-01-15T03:10:18;0.30;;;0.30;;
24389;SDS011;12510;56.468;-3.004;2023-01-15T03:12:49;0.52;;;0.43;;
24389;SDS011;12510;56.468;-3.004;2023-01-15T03:15:54;0.30;;;0.30;;
24389;SDS011;12510;56.468;-3.004;2023-01-15T03:18:52;0.30;;;0.30;;
24389;SDS011;12510;56.468;-3.004;2023-01-15T03:24:24;0.80;;;0.50;;
24389;SDS011;12510;56.468;-3.004;2023-01-15T03:26:57;0.40;;;0.40;;
24389;SDS011;12510;56.468;-3.004;2023-01-15T03:29:27;0.40;;;0.40;;
24389;SDS011;12510;56.468;-3.004;2023-01-15T03:31:59;0.50;;;0.45;;
24389;SDS011;12510;56.468;-3.004;2023-01-15T03:34:30;0.70;;;0.60;;
24389;SDS011;12510;56.468;-3.004;2023-01-15T03:37:04;2.03;;;0.65;;
24389;SDS011;12510;56.468;-3.004;2023-01-15T03:39:32;2.35;;;0.90;;
24389;SDS011;12510;56.468;-3.004;2023-01-15T03:45:01;2.05;;;0.60;;
24389;SDS011;12510;56.468;-3.004;2023-01-15T03:53:15;1.02;;;0.60;;
24389;SDS011;12510;56.468;-3.004;2023-01-15T03:58:41;0.85;;;0.85;;
24389;SDS011;12510;56.468;-3.004;2023-01-15T04:01:29;1.77;;;0.85;;
24389;SDS011;12510;56.468;-3.004;2023-01-15T04:04:00;0.50;;;0.50;;
24389;SDS011;12510;56.468;-3.004;2023-01-15T04:06:29;0.90;;;0.52;;
24389;SDS011;12510;56.468;-3.004;2023-01-15T04:08:59;1.75;;;0.90;;
24389;SDS011;12510;56.468;-3.004;2023-01-15T04:11:31;1.30;;;0.50;;
24389;SDS011;12510;56.468;-3.004;2023-01-15T04:14:03;1.05;;;0.50;;
24389;SDS011;12510;56.468;-3.004;2023-01-15T04:19:11;0.73;;;0.70;;
24389;SDS011;12510;56.468;-3.004;2023-01-15T04:21:42;3.13;;;0.80;;
24389;SDS011;12510;56.468;-3.004;2023-01-15T04:24:08;1.08;;;0.80;;
24389;SDS011;12510;56.468;-3.004;2023-01-15T04:26:35;2.15;;;1.40;;
24389;SDS011;12510;56.468;-3.004;2023-01-15T04:29:01;1.17;;;0.73;;
24389;SDS011;12510;56.468;-3.004;2023-01-15T04:31:28;0.47;;;0.47;;
24389;SDS011;12510;56.468;-3.004;2023-01-15T04:33:57;1.67;;;0.77;;
24389;SDS011;12510;56.468;-3.004;2023-01-15T04:36:24;2.15;;;1.42;;
24389;SDS011;12510;56.468;-3.004;2023-01-15T04:38:50;0.98;;;0.63;;
24389;SDS011;12510;56.468;-3.004;2023-01-15T04:41:17;1.35;;;0.70;;
24389;SDS011;12510;56.468;-3.004;2023-01-15T04:44:01;0.90;;;0.80;;
24389;SDS011;12510;56.468;-3.004;2023-01-15T04:46:38;1.48;;;0.77;;
24389;SDS011;12510;56.468;-3.004;2023-01-15T04:49:07;0.75;;;0.60;;
24389;SDS011;12510;56.468;-3.004;2023-01-15T04:51:36;2.50;;;0.85;;
24389;SDS011;12510;56.468;-3.004;2023-01-15T04:54:04;0.63;;;0.60;;
24389;SDS011;12510;56.468;-3.004;2023-01-15T04:56:36;1.27;;;0.52;;
24389;SDS011;12510;56.468;-3.004;2023-01-15T04:59:05;1.13;;;0.73;;
24389;SDS011;12510;56.468;-3.004;2023-01-15T05:01:32;0.85;;;0.50;;
24389;SDS011;12510;56.468;-3.004;2023-01-15T05:03:59;2.25;;;0.70;;
24389;SDS011;12510;56.468;-3.004;2023-01-15T05:06:26;1.45;;;0.68;;
24389;SDS011;12510;56.468;-3.004;2023-01-15T05:08:53;0.82;;;0.55;;
24389;SDS011;12510;56.468;-3.004;2023-01-15T05:11:20;1.75;;;0.90;;
24389;SDS011;12510;56.468;-3.004;2023-01-15T05:13:46;0.85;;;0.70;;
24389;SDS011;12510;56.468;-3.004;2023-01-15T05:16:17;1.15;;;0.80;;
24389;SDS011;12510;56.468;-3.004;2023-01-15T05:18:45;0.57;;;0.55;;
24389;SDS011;12510;56.468;-3.004;2023-01-15T05:21:13;1.60;;;0.80;;
24389;SDS011;12510;56.468;-3.004;2023-01-15T05:23:45;3.08;;;0.70;;
24389;SDS011;12510;56.468;-3.004;2023-01-15T05:26:12;2.22;;;1.00;;
24389;SDS011;12510;56.468;-3.004;2023-01-15T05:28:38;2.65;;;0.68;;
24389;SDS011;12510;56.468;-3.004;2023-01-15T05:31:06;1.73;;;0.70;;
24389;SDS011;12510;56.468;-3.004;2023-01-15T05:33:34;2.85;;;1.17;;
24389;SDS011;12510;56.468;-3.004;2023-01-15T05:36:06;1.27;;;0.73;;
24389;SDS011;12510;56.468;-3.004;2023-01-15T05:38:34;1.13;;;0.77;;
24389;SDS011;12510;56.468;-3.004;2023-01-15T05:41:05;1.25;;;0.68;;
24389;SDS011;12510;56.468;-3.004;2023-01-15T05:43:53;0.80;;;0.80;;
24389;SDS011;12510;56.468;-3.004;2023-01-15T05:46:21;0.90;;;0.60;;
24389;SDS011;12510;56.468;-3.004;2023-01-15T05:48:48;0.85;;;0.70;;
24389;SDS011;12510;56.468;-3.004;2023-01-15T05:51:14;0.63;;;0.60;;
24389;SDS011;12510;56.468;-3.004;2023-01-15T05:53:41;0.98;;;0.52;;
24389;SDS011;12510;56.468;-3.004;2023-01-15T05:56:07;0.52;;;0.52;;
24389;SDS011;12510;56.468;-3.004;2023-01-15T05:58:34;1.05;;;0.80;;
24389;SDS011;12510;56.468;-3.004;2023-01-15T06:01:07;1.73;;;0.60;;
24389;SDS011;12510;56.468;-3.004;2023-01-15T06:03:35;1.50;;;0.88;;
24389;SDS011;12510;56.468;-3.004;2023-01-15T06:06:02;2.65;;;0.95;;
24389;SDS011;12510;56.468;-3.004;2023-01-15T06:08:29;1.15;;;0.50;;
24389;SDS011;12510;56.468;-3.004;2023-01-15T06:10:56;1.30;;;0.80;;
24389;SDS011;12510;56.468;-3.004;2023-01-15T06:13:22;1.17;;;0.80;;
24389;SDS011;12510;56.468;-3.004;2023-01-15T06:15:49;1.25;;;0.73;;
24389;SDS011;12510;56.468;-3.004;2023-01-15T06:18:15;4.78;;;2.00;;
24389;SDS011;12510;56.468;-3.004;2023-01-15T06:20:42;2.67;;;0.90;;
24389;SDS011;12510;56.468;-3.004;2023-01-15T06:23:08;5.72;;;1.00;;
24389;SDS011;12510;56.468;-3.004;2023-01-15T06:25:35;1.05;;;0.93;;
24389;SDS011;12510;56.468;-3.004;2023-01-15T06:28:02;1.42;;;0.90;;
24389;SDS011;12510;56.468;-3.004;2023-01-15T06:30:29;1.42;;;0.80;;
24389;SDS011;12510;56.468;-3.004;2023-01-15T06:32:56;1.15;;;0.63;;
24389;SDS011;12510;56.468;-3.004;2023-01-15T06:35:22;1.80;;;1.60;;
24389;SDS011;12510;56.468;-3.004;2023-01-15T06:37:49;2.40;;;0.70;;
24389;SDS011;12510;56.468;-3.004;2023-01-15T06:40:15;1.77;;;0.88;;
24389;SDS011;12510;56.468;-3.004;2023-01-15T06:42:43;4.28;;;0.85;;
24389;SDS011;12510;56.468;-3.004;2023-01-15T06:45:30;2.00;;;1.10;;
24389;SDS011;12510;56.468;-3.004;2023-01-15T06:48:21;1.60;;;1.13;;
24389;SDS011;12510;56.468;-3.004;2023-01-15T06:50:51;2.25;;;1.13;;
24389;SDS011;12510;56.468;-3.004;2023-01-15T06:53:21;0.98;;;0.80;;
24389;SDS011;12510;56.468;-3.004;2023-01-15T06:55:48;2.90;;;1.17;;
24389;SDS011;12510;56.468;-3.004;2023-01-15T06:58:14;1.25;;;0.77;;
24389;SDS011;12510;56.468;-3.004;2023-01-15T07:00:41;3.83;;;1.30;;
24389;SDS011;12510;56.468;-3.004;2023-01-15T07:03:09;2.58;;;0.93;;
24389;SDS011;12510;56.468;-3.004;2023-01-15T07:05:39;3.60;;;1.25;;
24389;SDS011;12510;56.468;-3.004;2023-01-15T07:08:06;2.28;;;1.45;;
24389;SDS011;12510;56.468;-3.004;2023-01-15T07:10:33;3.05;;;1.70;;
24389;SDS011;12510;56.468;-3.004;2023-01-15T07:13:00;1.60;;;1.10;;
24389;SDS011;12510;56.468;-3.004;2023-01-15T07:15:27;1.98;;;1.17;;
24389;SDS011;12510;56.468;-3.004;2023-01-15T07:17:53;4.57;;;1.13;;
24389;SDS011;12510;56.468;-3.004;2023-01-15T07:20:20;4.10;;;0.93;;
24389;SDS011;12510;56.468;-3.004;2023-01-15T07:22:47;3.80;;;1.35;;
24389;SDS011;12510;56.468;-3.004;2023-01-15T07:25:17;1.20;;;0.98;;
24389;SDS011;12510;56.468;-3.004;2023-01-15T07:27:47;4.22;;;2.00;;
24389;SDS011;12510;56.468;-3.004;2023-01-15T07:30:13;3.40;;;1.27;;
24389;SDS011;12510;56.468;-3.004;2023-01-15T07:32:40;2.90;;;1.55;;
24389;SDS011;12510;56.468;-3.004;2023-01-15T07:35:07;2.83;;;1.33;;
24389;SDS011;12510;56.468;-3.004;2023-01-15T07:37:35;2.15;;;1.00;;
24389;SDS011;12510;56.468;-3.004;2023-01-15T07:40:01;4.05;;;1.27;;
24389;SDS011;12510;56.468;-3.004;2023-01-15T07:42:27;3.53;;;1.52;;
24389;SDS011;12510;56.468;-3.004;2023-01-15T07:45:12;6.13;;;2.42;;
24389;SDS011;12510;56.468;-3.004;2023-01-15T07:47:57;3.42;;;1.70;;
24389;SDS011;12510;56.468;-3.004;2023-01-15T07:50:42;3.58;;;1.40;;
24389;SDS011;12510;56.468;-3.004;2023-01-15T07:53:08;4.25;;;1.60;;
24389;SDS011;12510;56.468;-3.004;2023-01-15T07:55:35;3.08;;;0.95;;
24389;SDS011;12510;56.468;-3.004;2023-01-15T07:58:02;3.08;;;1.27;;
24389;SDS011;12510;56.468;-3.004;2023-01-15T08:00:28;3.78;;;1.30;;
24389;SDS011;12510;56.468;-3.004;2023-01-15T08:02:55;3.70;;;1.05;;
24389;SDS011;12510;56.468;-3.004;2023-01-15T08:05:21;3.20;;;1.27;;
24389;SDS011;12510;56.468;-3.004;2023-01-15T08:07:47;5.78;;;1.25;;
24389;SDS011;12510;56.468;-3.004;2023-01-15T08:10:14;5.60;;;1.58;;
24389;SDS011;12510;56.468;-3.004;2023-01-15T08:12:41;5.47;;;1.95;;
24389;SDS011;12510;56.468;-3.004;2023-01-15T08:15:28;3.90;;;1.25;;
24389;SDS011;12510;56.468;-3.004;2023-01-15T08:17:58;6.35;;;1.40;;
24389;SDS011;12510;56.468;-3.004;2023-01-15T08:20:25;4.15;;;1.92;;
24389;SDS011;12510;56.468;-3.004;2023-01-15T08:22:52;4.22;;;1.92;;
24389;SDS011;12510;56.468;-3.004;2023-01-15T08:25:19;3.80;;;1.25;;
24389;SDS011;12510;56.468;-3.004;2023-01-15T08:27:47;1.92;;;0.82;;
24389;SDS011;12510;56.468;-3.004;2023-01-15T08:30:18;6.03;;;1.35;;
24389;SDS011;12510;56.468;-3.004;2023-01-15T08:32:46;4.40;;;1.23;;
24389;SDS011;12510;56.468;-3.004;2023-01-15T08:35:12;7.82;;;1.30;;
24389;SDS011;12510;56.468;-3.004;2023-01-15T08:37:39;2.63;;;1.10;;
24389;SDS011;12510;56.468;-3.004;2023-01-15T08:40:08;2.72;;;1.23;;
24389;SDS011;12510;56.468;-3.004;2023-01-15T08:42:35;3.28;;;1.00;;
24389;SDS011;12510;56.468;-3.004;2023-01-15T08:45:02;3.42;;;1.15;;
24389;SDS011;12510;56.468;-3.004;2023-01-15T08:47:29;4.38;;;1.90;;
24389;SDS011;12510;56.468;-3.004;2023-01-15T08:49:57;4.78;;;1.00;;
24389;SDS011;12510;56.468;-3.004;2023-01-15T08:52:24;2.05;;;1.15;;
24389;SDS011;12510;56.468;-3.004;2023-01-15T08:54:50;2.55;;;1.10;;
24389;SDS011;12510;56.468;-3.004;2023-01-15T08:57:16;2.45;;;0.90;;
24389;SDS011;12510;56.468;-3.004;2023-01-15T08:59:43;3.13;;;1.10;;
24389;SDS011;12510;56.468;-3.004;2023-01-15T09:02:13;5.75;;;1.20;;
24389;SDS011;12510;56.468;-3.004;2023-01-15T09:04:40;3.28;;;1.10;;
24389;SDS011;12510;56.468;-3.004;2023-01-15T09:07:07;2.20;;;1.23;;
24389;SDS011;12510;56.468;-3.004;2023-01-15T09:09:33;4.57;;;1.00;;
24389;SDS011;12510;56.468;-3.004;2023-01-15T09:12:00;3.92;;;0.90;;
24389;SDS011;12510;56.468;-3.004;2023-01-15T09:14:26;3.42;;;1.00;;
24389;SDS011;12510;56.468;-3.004;2023-01-15T09:16:52;2.67;;;1.50;;
24389;SDS011;12510;56.468;-3.004;2023-01-15T09:19:19;4.10;;;1.52;;
24389;SDS011;12510;56.468;-3.004;2023-01-15T09:21:45;3.28;;;1.15;;
24389;SDS011;12510;56.468;-3.004;2023-01-15T09:24:12;4.50;;;1.13;;
24389;SDS011;12510;56.468;-3.004;2023-01-15T09:26:38;3.88;;;1.00;;
24389;SDS011;12510;56.468;-3.004;2023-01-15T09:29:05;2.17;;;1.30;;
24389;SDS011;12510;56.468;-3.004;2023-01-15T09:31:33;1.73;;;1.08;;
24389;SDS011;12510;56.468;-3.004;2023-01-15T09:34:00;2.58;;;0.98;;
24389;SDS011;12510;56.468;-3.004;2023-01-15T09:36:28;2.47;;;1.40;;
24389;SDS011;12510;56.468;-3.004;2023-01-15T09:38:56;2.45;;;1.15;;
24389;SDS011;12510;56.468;-3.004;2023-01-15T09:41:24;3.10;;;1.10;;
24389;SDS011;12510;56.468;-3.004;2023-01-15T09:47:17;2.92;;;1.00;;
24389;SDS011;12510;56.468;-3.004;2023-01-15T09:55:10;2.28;;;1.33;;
24389;SDS011;12510;56.468;-3.004;2023-01-15T09:57:40;1.55;;;1.00;;
24389;SDS011;12510;56.468;-3.004;2023-01-15T10:00:12;1.48;;;1.15;;
24389;SDS011;12510;56.468;-3.004;2023-01-15T10:02:57;5.72;;;1.25;;
24389;SDS011;12510;56.468;-3.004;2023-01-15T10:10:37;3.20;;;1.35;;
24389;SDS011;12510;56.468;-3.004;2023-01-15T10:15:55;1.60;;;0.90;;
24389;SDS011;12510;56.468;-3.004;2023-01-15T10:18:23;1.08;;;0.60;;
24389;SDS011;12510;56.468;-3.004;2023-01-15T10:23:37;1.70;;;0.70;;
24389;SDS011;12510;56.468;-3.004;2023-01-15T10:32:02;1.17;;;0.90;;
24389;SDS011;12510;56.468;-3.004;2023-01-15T10:45:22;3.20;;;0.57;;
24389;SDS011;12510;56.468;-3.004;2023-01-15T10:47:56;1.83;;;1.45;;
24389;SDS011;12510;56.468;-3.004;2023-01-15T10:50:29;0.77;;;0.55;;
24389;SDS011;12510;56.468;-3.004;2023-01-15T10:55:41;1.42;;;0.75;;
24389;SDS011;12510;56.468;-3.004;2023-01-15T11:01:02;0.80;;;0.60;;
24389;SDS011;12510;56.468;-3.004;2023-01-15T11:03:35;5.32;;;1.10;;
24389;SDS011;12510;56.468;-3.004;2023-01-15T11:08:33;0.85;;;0.60;;
24389;SDS011;12510;56.468;-3.004;2023-01-15T11:11:06;2.60;;;1.90;;
24389;SDS011;12510;56.468;-3.004;2023-01-15T11:13:54;1.55;;;1.02;;
24389;SDS011;12510;56.468;-3.004;2023-01-15T11:16:40;2.63;;;1.05;;
24389;SDS011;12510;56.468;-3.004;2023-01-15T11:19:33;4.03;;;3.63;;
24389;SDS011;12510;56.468;-3.004;2023-01-15T11:22:08;1.08;;;0.60;;
24389;SDS011;12510;56.468;-3.004;2023-01-15T11:24:46;1.10;;;0.77;;
24389;SDS011;12510;56.468;-3.004;2023-01-15T11:27:21;1.23;;;0.70;;
24389;SDS011;12510;56.468;-3.004;2023-01-15T11:29:55;1.70;;;0.77;;
24389;SDS011;12510;56.468;-3.004;2023-01-15T11:34:57;1.30;;;0.60;;
24389;SDS011;12510;56.468;-3.004;2023-01-15T11:37:26;3.15;;;0.65;;
24389;SDS011;12510;56.468;-3.004;2023-01-15T11:39:54;0.40;;;0.40;;
24389;SDS011;12510;56.468;-3.004;2023-01-15T11:42:22;0.70;;;0.55;;
24389;SDS011;12510;56.468;-3.004;2023-01-15T11:45:11;1.08;;;0.60;;
24389;SDS011;12510;56.468;-3.004;2023-01-15T11:47:58;1.52;;;0.70;;
24389;SDS011;12510;56.468;-3.004;2023-01-15T11:50:54;0.70;;;0.70;;
24389;SDS011;12510;56.468;-3.004;2023-01-15T11:53:26;0.77;;;0.75;;
24389;SDS011;12510;56.468;-3.004;2023-01-15T11:56:04;1.23;;;0.90;;
24389;SDS011;12510;56.468;-3.004;2023-01-15T11:58:38;0.75;;;0.60;;
24389;SDS011;12510;56.468;-3.004;2023-01-15T12:01:20;0.68;;;0.60;;
24389;SDS011;12510;56.468;-3.004;2023-01-15T12:07:10;0.68;;;0.40;;
24389;SDS011;12510;56.468;-3.004;2023-01-15T12:23:10;1.48;;;1.00;;
24389;SDS011;12510;56.468;-3.004;2023-01-15T12:25:52;1.17;;;0.80;;
24389;SDS011;12510;56.468;-3.004;2023-01-15T12:28:35;1.30;;;0.70;;
24389;SDS011;12510;56.468;-3.004;2023-01-15T12:31:13;1.05;;;0.60;;
24389;SDS011;12510;56.468;-3.004;2023-01-15T12:36:26;0.65;;;0.60;;
24389;SDS011;12510;56.468;-3.004;2023-01-15T12:41:31;1.48;;;0.75;;
24389;SDS011;12510;56.468;-3.004;2023-01-15T12:50:28;1.73;;;0.80;;
24389;SDS011;12510;56.468;-3.004;2023-01-15T12:56:04;0.93;;;0.82;;
24389;SDS011;12510;56.468;-3.004;2023-01-15T12:58:36;1.30;;;0.80;;
24389;SDS011;12510;56.468;-3.004;2023-01-15T13:05:03;0.60;;;0.52;;
24389;SDS011;12510;56.468;-3.004;2023-01-15T13:10:19;0.65;;;0.57;;
24389;SDS011;12510;56.468;-3.004;2023-01-15T13:12:46;0.47;;;0.40;;
24389;SDS011;12510;56.468;-3.004;2023-01-15T13:15:14;0.50;;;0.50;;
24389;SDS011;12510;56.468;-3.004;2023-01-15T13:18:00;1.83;;;0.70;;
24389;SDS011;12510;56.468;-3.004;2023-01-15T13:23:54;1.00;;;0.70;;
24389;SDS011;12510;56.468;-3.004;2023-01-15T13:29:07;1.70;;;0.63;;
24389;SDS011;12510;56.468;-3.004;2023-01-15T13:37:28;0.50;;;0.50;;
24389;SDS011;12510;56.468;-3.004;2023-01-15T13:40:42;0.57;;;0.55;;
24389;SDS011;12510;56.468;-3.004;2023-01-15T13:43:00;1.08;;;0.73;;
24389;SDS011;12510;56.468;-3.004;2023-01-15T13:48:19;1.48;;;0.57;;
24389;SDS011;12510;56.468;-3.004;2023-01-15T13:50:59;0.95;;;0.80;;
24389;SDS011;12510;56.468;-3.004;2023-01-15T13:55:54;1.42;;;0.70;;
24389;SDS011;12510;56.468;-3.004;2023-01-15T13:58:39;1.05;;;0.98;;
24389;SDS011;12510;56.468;-3.004;2023-01-15T14:03:53;2.08;;;1.40;;
24389;SDS011;12510;56.468;-3.004;2023-01-15T14:06:34;1.33;;;0.82;;
24389;SDS011;12510;56.468;-3.004;2023-01-15T14:09:01;1.85;;;0.88;;
24389;SDS011;12510;56.468;-3.004;2023-01-15T14:11:34;0.65;;;0.65;;
24389;SDS011;12510;56.468;-3.004;2023-01-15T14:14:11;1.40;;;0.50;;
24389;SDS011;12510;56.468;-3.004;2023-01-15T14:36:23;0.60;;;0.60;;
24389;SDS011;12510;56.468;-3.004;2023-01-15T14:38:56;1.25;;;1.15;;
24389;SDS011;12510;56.468;-3.004;2023-01-15T14:41:32;1.40;;;0.70;;
24389;SDS011;12510;56.468;-3.004;2023-01-15T14:44:28;0.60;;;0.60;;
24389;SDS011;12510;56.468;-3.004;2023-01-15T14:47:01;1.13;;;0.80;;
24389;SDS011;12510;56.468;-3.004;2023-01-15T14:49:41;0.63;;;0.60;;
24389;SDS011;12510;56.468;-3.004;2023-01-15T14:52:19;1.20;;;0.90;;
24389;SDS011;12510;56.468;-3.004;2023-01-15T14:54:48;1.50;;;0.85;;
24389;SDS011;12510;56.468;-3.004;2023-01-15T14:57:15;2.15;;;1.00;;
24389;SDS011;12510;56.468;-3.004;2023-01-15T14:59:51;0.80;;;0.80;;
24389;SDS011;12510;56.468;-3.004;2023-01-15T15:02:33;0.75;;;0.73;;
24389;SDS011;12510;56.468;-3.004;2023-01-15T15:05:03;1.85;;;1.13;;
24389;SDS011;12510;56.468;-3.004;2023-01-15T15:07:38;1.77;;;0.98;;
24389;SDS011;12510;56.468;-3.004;2023-01-15T15:10:22;1.67;;;1.50;;
24389;SDS011;12510;56.468;-3.004;2023-01-15T15:21:02;1.55;;;0.90;;
24389;SDS011;12510;56.468;-3.004;2023-01-15T15:23:57;1.55;;;0.90;;
24389;SDS011;12510;56.468;-3.004;2023-01-15T15:28:56;2.05;;;1.15;;
24389;SDS011;12510;56.468;-3.004;2023-01-15T15:31:37;1.65;;;1.20;;
24389;SDS011;12510;56.468;-3.004;2023-01-15T15:34:14;1.27;;;1.08;;
24389;SDS011;12510;56.468;-3.004;2023-01-15T15:36:43;1.27;;;1.10;;
24389;SDS011;12510;56.468;-3.004;2023-01-15T15:42:42;1.13;;;0.73;;
24389;SDS011;12510;56.468;-3.004;2023-01-15T15:45:34;1.98;;;0.98;;
24389;SDS011;12510;56.468;-3.004;2023-01-15T15:48:29;5.65;;;0.98;;
24389;SDS011;12510;56.468;-3.004;2023-01-15T15:56:30;4.47;;;1.70;;
24389;SDS011;12510;56.468;-3.004;2023-01-15T15:58:58;1.58;;;1.10;;
24389;SDS011;12510;56.468;-3.004;2023-01-15T16:01:25;1.90;;;1.00;;
24389;SDS011;12510;56.468;-3.004;2023-01-15T16:03:51;3.20;;;1.90;;
24389;SDS011;12510;56.468;-3.004;2023-01-15T16:06:19;0.80;;;0.80;;
24389;SDS011;12510;56.468;-3.004;2023-01-15T16:08:50;1.00;;;0.90;;
24389;SDS011;12510;56.468;-3.004;2023-01-15T16:11:22;0.98;;;0.80;;
24389;SDS011;12510;56.468;-3.004;2023-01-15T16:13:51;1.48;;;1.00;;
24389;SDS011;12510;56.468;-3.004;2023-01-15T16:16:23;1.33;;;0.80;;
24389;SDS011;12510;56.468;-3.004;2023-01-15T16:18:53;0.90;;;0.80;;
24389;SDS011;12510;56.468;-3.004;2023-01-15T16:21:24;1.40;;;1.25;;
24389;SDS011;12510;56.468;-3.004;2023-01-15T16:23:57;4.10;;;1.90;;
24389;SDS011;12510;56.468;-3.004;2023-01-15T16:26:36;1.48;;;1.25;;
24389;SDS011;12510;56.468;-3.004;2023-01-15T16:29:13;3.58;;;1.95;;
24389;SDS011;12510;56.468;-3.004;2023-01-15T16:31:43;2.45;;;2.00;;
24389;SDS011;12510;56.468;-3.004;2023-01-15T16:34:15;6.60;;;2.10;;
24389;SDS011;12510;56.468;-3.004;2023-01-15T16:36:47;2.40;;;2.10;;
24389;SDS011;12510;56.468;-3.004;2023-01-15T16:39:18;3.58;;;2.22;;
24389;SDS011;12510;56.468;-3.004;2023-01-15T16:41:51;2.38;;;1.75;;
24389;SDS011;12510;56.468;-3.004;2023-01-15T16:44:41;2.28;;;2.08;;
24389;SDS011;12510;56.468;-3.004;2023-01-15T16:47:21;3.50;;;2.78;;
24389;SDS011;12510;56.468;-3.004;2023-01-15T16:49:50;2.50;;;2.30;;
24389;SDS011;12510;56.468;-3.004;2023-01-15T16:55:02;3.38;;;2.65;;
24389;SDS011;12510;56.468;-3.004;2023-01-15T16:57:31;3.17;;;2.42;;
24389;SDS011;12510;56.468;-3.004;2023-01-15T17:00:00;3.92;;;2.20;;
24389;SDS011;12510;56.468;-3.004;2023-01-15T17:02:39;3.65;;;3.00;;
24389;SDS011;12510;56.468;-3.004;2023-01-15T17:05:20;4.63;;;1.85;;
24389;SDS011;12510;56.468;-3.004;2023-01-15T17:10:24;2.00;;;1.40;;
24389;SDS011;12510;56.468;-3.004;2023-01-15T17:12:52;2.00;;;1.60;;
24389;SDS011;12510;56.468;-3.004;2023-01-15T17:17:51;5.82;;;2.30;;
24389;SDS011;12510;56.468;-3.004;2023-01-15T17:20:19;2.30;;;1.70;;
24389;SDS011;12510;56.468;-3.004;2023-01-15T17:22:52;3.30;;;2.10;;
24389;SDS011;12510;56.468;-3.004;2023-01-15T17:28:00;3.92;;;3.55;;
24389;SDS011;12510;56.468;-3.004;2023-01-15T17:30:28;3.53;;;2.63;;
24389;SDS011;12510;56.468;-3.004;2023-01-15T17:32:56;3.92;;;2.58;;
24389;SDS011;12510;56.468;-3.004;2023-01-15T17:35:27;2.75;;;2.20;;
24389;SDS011;12510;56.468;-3.004;2023-01-15T17:37:58;3.85;;;2.38;;
24389;SDS011;12510;56.468;-3.004;2023-01-15T17:40:24;3.10;;;2.20;;
24389;SDS011;12510;56.468;-3.004;2023-01-15T17:42:52;4.03;;;2.80;;
24389;SDS011;12510;56.468;-3.004;2023-01-15T17:45:25;7.60;;;3.85;;
24389;SDS011;12510;56.468;-3.004;2023-01-15T17:47:52;3.67;;;2.60;;
24389;SDS011;12510;56.468;-3.004;2023-01-15T17:50:19;4.15;;;2.85;;
24389;SDS011;12510;56.468;-3.004;2023-01-15T17:52:47;2.58;;;2.38;;
24389;SDS011;12510;56.468;-3.004;2023-01-15T17:55:15;3.90;;;2.40;;
24389;SDS011;12510;56.468;-3.004;2023-01-15T17:58:04;3.33;;;2.30;;